Time;durP1;ratioP1;P1;durP2;ratioP2;P2;SDS_P1;SDS_P2;PMS_P1;PMS_P2;Temp;Humidity;BMP_temperature;BMP_pressure;BME280_temperature;BME280_humidity;BME280_pressure;Samples;Min_cycle;Max_cycle;Signal;HPM_P1;HPM_P2
2024/01/27 00:00:24;;;;;;;;;;;4.40;99.90;;;;;;5054557;28;19932;-49
2024/01/27 00:02:49;;;;;;;;;;;4.50;99.90;;;;;;5065335;28;19912;-55
2024/01/27 00:05:15;;;;;;;;;;;4.50;99.90;;;;;;5056706;28;19927;-50
2024/01/27 00:07:40;;;;;;;;;;;4.50;99.90;;;;;;5040042;28;19941;-49
2024/01/27 00:10:06;;;;;;;;;;;4.60;99.90;;;;;;5065528;28;19946;-50
2024/01/27 00:12:32;;;;;;;;;;;4.50;99.90;;;;;;5053286;28;20018;-48
2024/01/27 00:14:57;;;;;;;;;;;4.50;99.90;;;;;;5046891;28;20296;-53
2024/01/27 00:17:25;;;;;;;;;;;4.50;99.90;;;;;;5066100;28;19926;-51
2024/01/27 00:19:53;;;;;;;;;;;4.50;99.90;;;;;;5043509;28;20024;-52
2024/01/27 00:22:20;;;;;;;;;;;4.60;99.90;;;;;;5051734;28;20014;-48
2024/01/27 00:24:46;;;;;;;;;;;4.60;99.90;;;;;;5059986;28;20281;-50
2024/01/27 00:27:11;;;;;;;;;;;4.60;99.90;;;;;;5058702;28;19950;-51
2024/01/27 00:29:37;;;;;;;;;;;4.60;99.90;;;;;;5044003;28;19961;-52
2024/01/27 00:32:02;;;;;;;;;;;4.60;99.90;;;;;;5070620;28;19931;-51
2024/01/27 00:34:28;;;;;;;;;;;4.60;99.90;;;;;;5065941;28;19937;-50
2024/01/27 00:36:53;;;;;;;;;;;4.70;99.90;;;;;;5059405;28;19935;-50
2024/01/27 00:39:19;;;;;;;;;;;4.70;99.90;;;;;;5047813;28;19996;-48
2024/01/27 00:41:45;;;;;;;;;;;4.60;99.90;;;;;;5046579;28;19967;-50
2024/01/27 00:44:10;;;;;;;;;;;4.50;99.90;;;;;;5063108;28;20308;-47
2024/01/27 00:46:39;;;;;;;;;;;4.50;99.90;;;;;;5056372;28;20317;-49
2024/01/27 00:49:04;;;;;;;;;;;4.50;99.90;;;;;;5063720;28;20389;-50
2024/01/27 00:51:30;;;;;;;;;;;4.50;99.90;;;;;;5043856;28;20395;-53
2024/01/27 00:53:55;;;;;;;;;;;4.50;99.90;;;;;;5062826;28;19972;-48
2024/01/27 00:56:21;;;;;;;;;;;4.50;99.90;;;;;;5052573;28;20385;-48
2024/01/27 00:58:46;;;;;;;;;;;4.50;99.90;;;;;;5031533;28;19913;-49
2024/01/27 01:01:12;;;;;;;;;;;4.50;99.90;;;;;;5063524;28;19997;-49
2024/01/27 01:03:37;;;;;;;;;;;4.60;99.90;;;;;;5062013;28;19961;-47
2024/01/27 01:06:03;;;;;;;;;;;4.50;99.90;;;;;;5045542;28;20003;-48
2024/01/27 01:08:28;;;;;;;;;;;4.50;99.90;;;;;;5070539;28;20354;-50
2024/01/27 01:10:54;;;;;;;;;;;4.50;99.90;;;;;;5054222;28;19947;-49
2024/01/27 01:13:19;;;;;;;;;;;4.50;99.90;;;;;;5062545;28;20314;-48
2024/01/27 01:15:45;;;;;;;;;;;4.40;99.90;;;;;;5045620;28;19930;-56
2024/01/27 01:18:10;;;;;;;;;;;4.50;99.90;;;;;;5062441;28;19956;-50
2024/01/27 01:20:36;;;;;;;;;;;4.50;99.90;;;;;;5055400;28;19963;-48
2024/01/27 01:23:01;;;;;;;;;;;4.50;99.90;;;;;;5069404;28;20020;-49
2024/01/27 01:25:27;;;;;;;;;;;4.50;99.90;;;;;;5047524;28;19951;-48
2024/01/27 01:27:52;;;;;;;;;;;4.50;99.90;;;;;;5051312;28;20440;-49
2024/01/27 01:30:18;;;;;;;;;;;4.50;99.90;;;;;;5065894;28;19927;-47
2024/01/27 01:32:43;;;;;;;;;;;4.40;99.90;;;;;;5034285;28;19924;-49
2024/01/27 01:35:12;;;;;;;;;;;4.40;99.90;;;;;;5061634;28;19919;-52
2024/01/27 01:37:37;;;;;;;;;;;4.40;99.90;;;;;;5053301;28;19939;-49
2024/01/27 01:40:03;;;;;;;;;;;4.30;99.90;;;;;;5032414;28;19929;-51
2024/01/27 01:42:29;;;;;;;;;;;4.30;99.90;;;;;;5038537;28;19986;-50
2024/01/27 01:44:55;;;;;;;;;;;4.30;99.90;;;;;;5040881;28;20317;-50
2024/01/27 01:47:22;;;;;;;;;;;4.30;99.90;;;;;;5048310;28;19949;-50
2024/01/27 01:49:47;;;;;;;;;;;4.30;99.90;;;;;;5066589;28;19923;-52
2024/01/27 01:52:19;;;;;;;;;;;4.20;99.90;;;;;;5062263;28;20444;-52
2024/01/27 01:54:48;;;;;;;;;;;4.20;99.90;;;;;;5045672;28;20409;-51
2024/01/27 01:57:14;;;;;;;;;;;4.20;99.90;;;;;;5045582;28;20464;-49
2024/01/27 01:59:40;;;;;;;;;;;4.10;99.90;;;;;;5069092;28;19947;-52
2024/01/27 02:02:06;;;;;;;;;;;4.00;99.90;;;;;;5038009;28;19924;-52
2024/01/27 02:04:41;;;;;;;;;;;3.80;99.90;;;;;;5038478;28;19925;-50
2024/01/27 02:07:07;;;;;;;;;;;3.70;99.90;;;;;;5057055;28;19913;-48
2024/01/27 02:09:32;;;;;;;;;;;3.70;99.90;;;;;;5056521;28;19913;-48
2024/01/27 02:11:58;;;;;;;;;;;3.60;99.90;;;;;;5052992;28;20319;-49
2024/01/27 02:14:25;;;;;;;;;;;3.50;99.90;;;;;;5059963;28;20450;-52
2024/01/27 02:16:50;;;;;;;;;;;3.30;99.90;;;;;;5045837;28;20293;-49
2024/01/27 02:19:16;;;;;;;;;;;3.20;99.90;;;;;;5046447;28;20003;-51
2024/01/27 02:21:41;;;;;;;;;;;3.20;99.90;;;;;;5069814;28;19945;-55
2024/01/27 02:24:07;;;;;;;;;;;3.00;99.90;;;;;;5061540;28;19916;-49
2024/01/27 02:26:32;;;;;;;;;;;2.90;99.90;;;;;;5052440;28;20033;-49
2024/01/27 02:28:58;;;;;;;;;;;2.80;99.90;;;;;;5053059;28;20430;-49
2024/01/27 02:31:23;;;;;;;;;;;2.80;99.90;;;;;;5056363;28;19930;-52
2024/01/27 02:33:49;;;;;;;;;;;2.70;99.90;;;;;;5049960;28;19919;-48
2024/01/27 02:36:14;;;;;;;;;;;2.60;99.90;;;;;;5044897;28;19937;-48
2024/01/27 02:38:40;;;;;;;;;;;2.50;99.90;;;;;;5044686;28;20435;-52
2024/01/27 02:41:05;;;;;;;;;;;2.30;99.90;;;;;;5044685;28;19940;-48
2024/01/27 02:43:31;;;;;;;;;;;2.20;99.90;;;;;;5057150;28;20001;-51
2024/01/27 02:45:56;;;;;;;;;;;2.20;99.90;;;;;;5037232;28;19949;-51
2024/01/27 02:48:22;;;;;;;;;;;2.10;99.90;;;;;;5051029;28;20036;-55
2024/01/27 02:50:47;;;;;;;;;;;2.00;99.90;;;;;;5065931;28;20387;-48
2024/01/27 02:53:12;;;;;;;;;;;2.00;99.90;;;;;;5046275;28;19946;-48
2024/01/27 02:55:38;;;;;;;;;;;1.90;99.90;;;;;;5045421;28;19963;-51
2024/01/27 02:58:04;;;;;;;;;;;1.90;99.90;;;;;;5056403;28;20464;-48
2024/01/27 03:00:29;;;;;;;;;;;1.80;99.90;;;;;;5063788;28;20283;-50
2024/01/27 03:02:58;;;;;;;;;;;1.80;99.90;;;;;;5050385;28;20010;-51
2024/01/27 03:05:23;;;;;;;;;;;1.80;99.90;;;;;;5047231;28;19934;-50
2024/01/27 03:07:49;;;;;;;;;;;1.70;99.90;;;;;;5068862;28;20445;-50
2024/01/27 03:10:14;;;;;;;;;;;1.60;99.90;;;;;;5045016;28;20018;-52
2024/01/27 03:12:40;;;;;;;;;;;1.60;99.90;;;;;;5048715;28;19922;-50
2024/01/27 03:15:05;;;;;;;;;;;1.50;99.90;;;;;;5050286;28;20025;-50
2024/01/27 03:17:31;;;;;;;;;;;1.40;99.90;;;;;;5053041;28;19959;-49
2024/01/27 03:19:56;;;;;;;;;;;1.50;99.90;;;;;;5064688;28;20405;-51
2024/01/27 03:22:22;;;;;;;;;;;1.40;99.90;;;;;;5047116;28;19925;-50
2024/01/27 03:24:47;;;;;;;;;;;1.40;99.90;;;;;;5049566;28;20011;-50
2024/01/27 03:27:13;;;;;;;;;;;1.30;99.90;;;;;;5068427;28;19959;-50
2024/01/27 03:29:38;;;;;;;;;;;1.30;99.90;;;;;;5053920;28;20432;-49
2024/01/27 03:32:03;;;;;;;;;;;1.30;99.90;;;;;;5045679;28;19943;-53
2024/01/27 03:34:29;;;;;;;;;;;1.20;99.90;;;;;;5066825;28;19934;-51
2024/01/27 03:36:54;;;;;;;;;;;1.20;99.90;;;;;;5035629;28;19938;-48
2024/01/27 03:39:20;;;;;;;;;;;1.10;99.90;;;;;;5048091;28;20002;-51
2024/01/27 03:41:45;;;;;;;;;;;1.10;99.90;;;;;;5048656;28;19934;-48
2024/01/27 03:44:11;;;;;;;;;;;1.10;99.90;;;;;;5055950;28;20415;-50
2024/01/27 03:46:38;;;;;;;;;;;1.10;99.90;;;;;;5071825;28;19955;-48
2024/01/27 03:49:04;;;;;;;;;;;1.00;99.90;;;;;;5047459;28;20293;-49
2024/01/27 03:51:30;;;;;;;;;;;0.90;99.90;;;;;;5072537;28;19981;-48
2024/01/27 03:53:55;;;;;;;;;;;0.90;99.90;;;;;;5045075;28;19938;-51
2024/01/27 03:56:21;;;;;;;;;;;0.90;99.90;;;;;;5048234;28;19972;-50
2024/01/27 03:58:46;;;;;;;;;;;0.80;99.90;;;;;;5048864;28;20337;-51
2024/01/27 04:01:11;;;;;;;;;;;0.80;99.90;;;;;;5048794;28;20064;-53
2024/01/27 04:03:37;;;;;;;;;;;0.80;99.90;;;;;;5054317;28;20315;-48
2024/01/27 04:06:02;;;;;;;;;;;0.80;99.90;;;;;;5038320;28;20051;-48
2024/01/27 04:08:29;;;;;;;;;;;0.80;99.90;;;;;;5052624;28;19952;-48
2024/01/27 04:10:55;;;;;;;;;;;0.70;99.90;;;;;;5050718;28;19941;-48
2024/01/27 04:13:20;;;;;;;;;;;0.70;99.90;;;;;;5062993;28;20528;-50
2024/01/27 04:15:46;;;;;;;;;;;0.60;99.90;;;;;;5047934;28;20025;-48
2024/01/27 04:18:11;;;;;;;;;;;0.60;99.90;;;;;;5055399;28;19941;-48
2024/01/27 04:20:37;;;;;;;;;;;0.60;99.90;;;;;;5058606;28;20027;-49
2024/01/27 04:23:03;;;;;;;;;;;0.60;99.90;;;;;;5059910;28;19936;-48
2024/01/27 04:25:28;;;;;;;;;;;0.60;99.90;;;;;;5071038;28;20411;-52
2024/01/27 04:27:54;;;;;;;;;;;0.60;99.90;;;;;;5070497;28;19928;-54
2024/01/27 04:30:19;;;;;;;;;;;0.50;99.90;;;;;;5064520;28;20406;-48
2024/01/27 04:32:45;;;;;;;;;;;0.50;99.90;;;;;;5039408;28;19931;-48
2024/01/27 04:35:11;;;;;;;;;;;0.50;99.90;;;;;;5059367;28;19931;-52
2024/01/27 04:37:36;;;;;;;;;;;0.40;99.90;;;;;;5051756;28;20414;-48
2024/01/27 04:40:03;;;;;;;;;;;0.40;99.90;;;;;;5059561;28;19931;-49
2024/01/27 04:42:29;;;;;;;;;;;0.40;99.90;;;;;;5059592;28;19981;-48
2024/01/27 04:44:54;;;;;;;;;;;0.30;99.90;;;;;;5060404;28;19970;-50
2024/01/27 04:47:20;;;;;;;;;;;0.40;99.90;;;;;;5061795;28;20357;-54
2024/01/27 04:49:45;;;;;;;;;;;0.40;99.90;;;;;;5039334;28;19987;-47
2024/01/27 04:52:11;;;;;;;;;;;0.40;99.90;;;;;;5071050;28;20389;-48
2024/01/27 04:54:36;;;;;;;;;;;0.40;99.90;;;;;;5057674;28;19940;-51
2024/01/27 04:57:02;;;;;;;;;;;0.40;99.90;;;;;;5046957;28;20301;-47
2024/01/27 04:59:28;;;;;;;;;;;0.40;99.90;;;;;;5042286;28;19955;-48
2024/01/27 05:01:53;;;;;;;;;;;0.20;99.90;;;;;;5061891;28;20306;-49
2024/01/27 05:04:18;;;;;;;;;;;0.10;99.90;;;;;;5059247;28;19991;-49
2024/01/27 05:06:47;;;;;;;;;;;0.10;99.90;;;;;;5050981;28;19994;-47
2024/01/27 05:09:12;;;;;;;;;;;0.10;99.90;;;;;;5055531;28;20043;-53
2024/01/27 05:11:38;;;;;;;;;;;0.20;99.90;;;;;;5061263;28;20047;-48
2024/01/27 05:14:04;;;;;;;;;;;0.10;99.90;;;;;;5070758;28;19931;-47
2024/01/27 05:16:29;;;;;;;;;;;0.10;99.90;;;;;;5064329;28;20053;-49
2024/01/27 05:18:55;;;;;;;;;;;0.10;99.90;;;;;;5051608;28;20097;-48
2024/01/27 05:21:20;;;;;;;;;;;0.20;99.90;;;;;;5062563;28;20418;-47
2024/01/27 05:23:46;;;;;;;;;;;0.10;99.90;;;;;;5070648;28;19931;-47
2024/01/27 05:26:11;;;;;;;;;;;-0.10;99.90;;;;;;5033610;28;20019;-51
2024/01/27 05:28:37;;;;;;;;;;;-0.10;99.90;;;;;;5057125;28;19944;-52
2024/01/27 05:31:06;;;;;;;;;;;0.00;99.90;;;;;;5058028;28;19925;-55
2024/01/27 05:33:31;;;;;;;;;;;0.00;99.90;;;;;;5044757;28;19928;-48
2024/01/27 05:35:57;;;;;;;;;;;-0.10;99.90;;;;;;5051011;28;19937;-51
2024/01/27 05:38:22;;;;;;;;;;;-0.10;99.90;;;;;;5070266;28;19954;-47
2024/01/27 05:40:49;;;;;;;;;;;-0.10;99.90;;;;;;5062237;28;20369;-49
2024/01/27 05:43:15;;;;;;;;;;;-0.10;99.90;;;;;;5034025;28;19999;-51
2024/01/27 05:45:40;;;;;;;;;;;-0.20;99.90;;;;;;5065068;28;19955;-48
2024/01/27 05:48:06;;;;;;;;;;;-0.20;99.90;;;;;;5061942;28;19960;-48
2024/01/27 05:50:32;;;;;;;;;;;-0.20;99.90;;;;;;5061995;28;19933;-49
2024/01/27 05:52:57;;;;;;;;;;;-0.20;99.90;;;;;;5051033;28;19937;-52
2024/01/27 05:55:22;;;;;;;;;;;-0.10;99.90;;;;;;5055623;28;20400;-49
2024/01/27 05:57:48;;;;;;;;;;;-0.10;99.90;;;;;;5069995;28;19992;-48
2024/01/27 06:00:16;;;;;;;;;;;-0.20;99.90;;;;;;5055860;28;19939;-48
2024/01/27 06:02:42;;;;;;;;;;;-0.30;99.90;;;;;;5053086;28;19945;-52
2024/01/27 06:05:08;;;;;;;;;;;-0.30;99.90;;;;;;5069777;28;19934;-51
2024/01/27 06:07:34;;;;;;;;;;;-0.20;99.90;;;;;;5046268;28;20080;-48
2024/01/27 06:09:59;;;;;;;;;;;-0.30;99.90;;;;;;5051487;28;20034;-54
2024/01/27 06:12:25;;;;;;;;;;;-0.30;99.90;;;;;;5061617;28;20399;-55
2024/01/27 06:14:50;;;;;;;;;;;-0.30;99.90;;;;;;5060959;28;20017;-52
2024/01/27 06:17:16;;;;;;;;;;;-0.30;99.90;;;;;;5029514;28;19933;-54
2024/01/27 06:19:41;;;;;;;;;;;-0.40;99.90;;;;;;5052666;28;20403;-54
2024/01/27 06:22:07;;;;;;;;;;;-0.50;99.90;;;;;;5067216;28;19938;-53
2024/01/27 06:24:32;;;;;;;;;;;-0.60;99.90;;;;;;5049930;28;19930;-53
2024/01/27 06:26:58;;;;;;;;;;;-0.70;99.90;;;;;;5039452;28;20519;-51
2024/01/27 06:29:23;;;;;;;;;;;-0.60;99.90;;;;;;5039274;28;19951;-54
2024/01/27 06:31:49;;;;;;;;;;;-0.60;99.90;;;;;;5044944;28;20320;-56
2024/01/27 06:34:14;;;;;;;;;;;-0.60;99.90;;;;;;5053281;28;19933;-52
2024/01/27 06:36:40;;;;;;;;;;;-0.60;99.90;;;;;;5069060;28;19949;-57
2024/01/27 06:39:07;;;;;;;;;;;-0.60;99.90;;;;;;5050800;28;19952;-53
2024/01/27 06:41:33;;;;;;;;;;;-0.60;99.90;;;;;;5066722;28;20550;-55
2024/01/27 06:43:58;;;;;;;;;;;-0.60;99.90;;;;;;5043482;28;20001;-54
2024/01/27 06:46:24;;;;;;;;;;;-0.70;99.90;;;;;;5058549;28;20310;-51
2024/01/27 06:48:50;;;;;;;;;;;-0.60;99.90;;;;;;5066906;28;19945;-54
2024/01/27 06:51:15;;;;;;;;;;;-0.60;99.90;;;;;;5066414;28;19945;-52
2024/01/27 06:53:41;;;;;;;;;;;-0.60;99.90;;;;;;5056869;28;19945;-54
2024/01/27 06:56:06;;;;;;;;;;;-0.60;99.90;;;;;;5069411;28;19938;-52
2024/01/27 06:58:32;;;;;;;;;;;-0.60;99.90;;;;;;5049412;28;19953;-56
2024/01/27 07:00:57;;;;;;;;;;;-0.70;99.90;;;;;;5055661;28;19939;-56
2024/01/27 07:03:23;;;;;;;;;;;-0.70;99.90;;;;;;5057133;28;19936;-54
2024/01/27 07:05:48;;;;;;;;;;;-0.60;99.90;;;;;;5048858;28;20321;-51
2024/01/27 07:08:14;;;;;;;;;;;-0.60;99.90;;;;;;5053443;28;19957;-53
2024/01/27 07:10:39;;;;;;;;;;;-0.60;99.90;;;;;;5052212;28;19934;-53
2024/01/27 07:13:06;;;;;;;;;;;-0.60;99.90;;;;;;5064703;28;19940;-51
2024/01/27 07:15:31;;;;;;;;;;;-0.60;99.90;;;;;;5056048;28;19983;-53
2024/01/27 07:17:57;;;;;;;;;;;-0.50;99.90;;;;;;5046515;28;20378;-53
2024/01/27 07:20:24;;;;;;;;;;;-0.60;99.90;;;;;;5039201;28;20272;-54
2024/01/27 07:22:49;;;;;;;;;;;-0.50;99.90;;;;;;5064805;28;20406;-55
2024/01/27 07:25:15;;;;;;;;;;;-0.50;99.90;;;;;;5051351;28;20393;-53
2024/01/27 07:27:41;;;;;;;;;;;-0.50;99.90;;;;;;5050620;28;19955;-53
2024/01/27 07:30:09;;;;;;;;;;;-0.50;99.90;;;;;;5050603;28;19942;-53
2024/01/27 07:32:34;;;;;;;;;;;-0.50;99.90;;;;;;5040792;28;20025;-54
2024/01/27 07:35:00;;;;;;;;;;;-0.50;99.90;;;;;;5054840;28;20039;-52
2024/01/27 07:37:25;;;;;;;;;;;-0.50;99.90;;;;;;5065056;28;20341;-52
2024/01/27 07:39:51;;;;;;;;;;;-0.50;99.90;;;;;;5031821;28;19953;-52
2024/01/27 07:42:16;;;;;;;;;;;-0.60;99.90;;;;;;5059688;28;19942;-52
2024/01/27 07:44:42;;;;;;;;;;;-0.50;99.90;;;;;;5043502;28;19942;-52
2024/01/27 07:47:08;;;;;;;;;;;-0.50;99.90;;;;;;5061404;28;19955;-57
2024/01/27 07:49:34;;;;;;;;;;;-0.40;99.90;;;;;;5048917;28;20462;-56
2024/01/27 07:52:00;;;;;;;;;;;-0.40;99.90;;;;;;5050328;28;19970;-51
2024/01/27 07:54:25;;;;;;;;;;;-0.40;99.90;;;;;;5057675;28;19934;-53
2024/01/27 07:56:51;;;;;;;;;;;-0.40;99.90;;;;;;5062306;28;20257;-52
2024/01/27 07:59:17;;;;;;;;;;;-0.40;99.90;;;;;;5052551;28;19950;-55
2024/01/27 08:01:42;;;;;;;;;;;-0.40;99.90;;;;;;5071450;28;19933;-48
2024/01/27 08:04:08;;;;;;;;;;;-0.30;99.90;;;;;;5060289;28;19931;-50
2024/01/27 08:06:33;;;;;;;;;;;-0.30;99.90;;;;;;5036584;28;19953;-53
2024/01/27 08:08:59;;;;;;;;;;;-0.30;99.90;;;;;;5055957;28;19957;-55
2024/01/27 08:11:24;;;;;;;;;;;-0.30;99.90;;;;;;5047338;28;19936;-53
2024/01/27 08:13:50;;;;;;;;;;;-0.30;99.90;;;;;;5054931;28;20357;-53
2024/01/27 08:16:16;;;;;;;;;;;-0.30;99.90;;;;;;5067179;28;19935;-55
2024/01/27 08:18:43;;;;;;;;;;;-0.20;99.90;;;;;;5050109;28;20384;-53
2024/01/27 08:21:09;;;;;;;;;;;-0.20;99.90;;;;;;5032588;28;19943;-51
2024/01/27 08:23:35;;;;;;;;;;;-0.20;99.90;;;;;;5039357;28;19945;-51
2024/01/27 08:26:00;;;;;;;;;;;-0.10;99.90;;;;;;5049850;28;20029;-53
2024/01/27 08:28:26;;;;;;;;;;;-0.10;99.90;;;;;;5070071;28;20084;-51
2024/01/27 08:30:51;;;;;;;;;;;-0.10;99.90;;;;;;5054107;28;19933;-52
2024/01/27 08:33:17;;;;;;;;;;;0.00;99.90;;;;;;5062531;28;19946;-53
2024/01/27 08:35:43;;;;;;;;;;;0.10;99.90;;;;;;5061796;28;19929;-52
2024/01/27 08:38:09;;;;;;;;;;;0.10;99.90;;;;;;5065446;28;19983;-52
2024/01/27 08:40:35;;;;;;;;;;;0.10;99.90;;;;;;5030067;28;19933;-53
2024/01/27 08:43:01;;;;;;;;;;;0.20;99.90;;;;;;5050129;28;20414;-56
2024/01/27 08:45:27;;;;;;;;;;;0.20;99.90;;;;;;5064988;28;20053;-54
2024/01/27 08:47:53;;;;;;;;;;;;;;;;;;5059357;28;20107;-54
2024/01/27 08:50:18;;;;;;;;;;;;;;;;;;5046106;28;19933;-56
2024/01/27 08:52:46;;;;;;;;;;;;;;;;;;5054827;28;20352;-52
2024/01/27 08:55:12;;;;;;;;;;;;;;;;;;5063968;28;19937;-54
2024/01/27 08:57:38;;;;;;;;;;;;;;;;;;5050856;28;19908;-56
2024/01/27 09:00:03;;;;;;;;;;;0.20;99.90;;;;;;5066795;28;19919;-57
2024/01/27 09:02:29;;;;;;;;;;;3.30;99.90;;;;;;5039606;28;19970;-56
2024/01/27 09:04:55;;;;;;;;;;;5.20;99.90;;;;;;5069754;28;19952;-53
2024/01/27 09:07:20;;;;;;;;;;;7.00;99.90;;;;;;5045838;28;19916;-56
2024/01/27 09:09:46;;;;;;;;;;;8.30;99.90;;;;;;5061605;28;19927;-56
2024/01/27 09:12:11;;;;;;;;;;;9.70;99.90;;;;;;5043342;28;19921;-52
2024/01/27 09:14:37;;;;;;;;;;;10.40;99.90;;;;;;5025130;28;19913;-56
2024/01/27 09:17:02;;;;;;;;;;;10.60;99.90;;;;;;5040758;28;19931;-56
2024/01/27 09:19:28;;;;;;;;;;;10.70;99.90;;;;;;5045077;28;20306;-56
2024/01/27 09:21:53;;;;;;;;;;;10.40;99.90;;;;;;5050369;28;20012;-51
2024/01/27 09:24:19;;;;;;;;;;;9.80;99.90;;;;;;5061897;28;19927;-56
2024/01/27 09:26:44;;;;;;;;;;;9.80;99.90;;;;;;5053051;28;19921;-53
2024/01/27 09:29:10;;;;;;;;;;;9.50;99.90;;;;;;5047383;28;19938;-54
2024/01/27 09:31:35;;;;;;;;;;;9.50;99.90;;;;;;5037656;28;19913;-55
2024/01/27 09:34:01;;;;;;;;;;;9.40;99.90;;;;;;5048655;28;19920;-56
2024/01/27 09:36:26;;;;;;;;;;;8.10;99.90;;;;;;5063904;28;19920;-55
2024/01/27 09:38:52;;;;;;;;;;;8.00;99.90;;;;;;5049403;28;19913;-56
2024/01/27 09:41:18;;;;;;;;;;;8.00;99.90;;;;;;5041051;28;20007;-56
2024/01/27 09:43:44;;;;;;;;;;;7.60;99.90;;;;;;5038174;28;19936;-54
2024/01/27 09:46:13;;;;;;;;;;;7.30;99.90;;;;;;5063208;28;20035;-57
2024/01/27 09:48:41;;;;;;;;;;;6.80;99.90;;;;;;5036975;28;20221;-54
2024/01/27 09:51:07;;;;;;;;;;;6.60;99.90;;;;;;5049780;28;19963;-56
2024/01/27 09:53:33;;;;;;;;;;;6.20;99.90;;;;;;5041214;28;19913;-57
2024/01/27 09:55:59;;;;;;;;;;;6.00;99.90;;;;;;5045904;28;20173;-56
2024/01/27 09:58:27;;;;;;;;;;;6.20;99.90;;;;;;5061670;28;19954;-53
2024/01/27 10:00:55;;;;;;;;;;;6.20;99.90;;;;;;5060602;28;19990;-52
2024/01/27 10:03:23;;;;;;;;;;;6.40;99.90;;;;;;5049615;28;19921;-55
2024/01/27 10:05:48;;;;;;;;;;;6.70;99.90;;;;;;5030595;28;20002;-56
2024/01/27 10:08:17;;;;;;;;;;;6.90;99.90;;;;;;5053997;28;19925;-52
2024/01/27 10:10:42;;;;;;;;;;;6.90;99.90;;;;;;5059324;28;19912;-56
2024/01/27 10:13:10;;;;;;;;;;;7.00;99.90;;;;;;5058208;28;19945;-53
2024/01/27 10:15:35;;;;;;;;;;;7.30;99.90;;;;;;5050537;28;20565;-55
2024/01/27 10:18:05;;;;;;;;;;;7.60;99.90;;;;;;5055913;28;20231;-57
2024/01/27 10:20:30;;;;;;;;;;;7.70;99.90;;;;;;5057450;28;20377;-61
2024/01/27 10:22:56;;;;;;;;;;;7.90;99.90;;;;;;5029442;28;19920;-57
2024/01/27 10:25:22;;;;;;;;;;;8.00;99.90;;;;;;5039835;28;19920;-57
2024/01/27 10:27:47;;;;;;;;;;;8.20;99.90;;;;;;5014574;28;19935;-57
2024/01/27 10:30:19;;;;;;;;;;;8.50;99.90;;;;;;5061664;28;20333;-56
2024/01/27 10:32:54;;;;;;;;;;;8.60;99.90;;;;;;5036305;28;19956;-56
2024/01/27 10:35:20;;;;;;;;;;;8.70;99.90;;;;;;5059936;28;19917;-55
2024/01/27 10:37:45;;;;;;;;;;;8.70;99.90;;;;;;5061103;28;19917;-57
2024/01/27 10:40:15;;;;;;;;;;;8.70;99.90;;;;;;5056711;28;19916;-56
2024/01/27 10:42:44;;;;;;;;;;;8.80;99.90;;;;;;5063425;28;19920;-53
2024/01/27 10:45:11;;;;;;;;;;;8.90;99.90;;;;;;5014081;28;19916;-56
2024/01/27 10:47:37;;;;;;;;;;;8.80;99.90;;;;;;5054036;28;19920;-56
2024/01/27 10:50:10;;;;;;;;;;;8.80;99.90;;;;;;5055876;28;20284;-57
2024/01/27 10:52:41;;;;;;;;;;;8.80;99.90;;;;;;5034655;28;19916;-57
2024/01/27 10:55:07;;;;;;;;;;;8.70;99.90;;;;;;5050225;28;19917;-56
2024/01/27 10:57:33;;;;;;;;;;;8.70;99.90;;;;;;5040264;28;20067;-52
2024/01/27 11:00:00;;;;;;;;;;;8.80;99.90;;;;;;5046624;28;20403;-57
2024/01/27 11:02:28;;;;;;;;;;;8.70;99.90;;;;;;5068495;28;20364;-56
2024/01/27 11:04:54;;;;;;;;;;;8.70;99.90;;;;;;5035371;28;20288;-54
2024/01/27 11:07:23;;;;;;;;;;;8.70;99.90;;;;;;5051004;28;19929;-54
2024/01/27 11:09:50;;;;;;;;;;;8.70;99.90;;;;;;5052251;28;20232;-55
2024/01/27 11:12:16;;;;;;;;;;;8.70;99.90;;;;;;5043149;28;19916;-52
2024/01/27 11:14:41;;;;;;;;;;;8.70;99.90;;;;;;5052220;28;19917;-53
2024/01/27 11:17:07;;;;;;;;;;;8.80;99.90;;;;;;5065874;28;19908;-56
2024/01/27 11:19:33;;;;;;;;;;;8.90;99.90;;;;;;5068324;28;20013;-55
2024/01/27 11:22:04;;;;;;;;;;;8.90;99.90;;;;;;5022690;28;19975;-54
2024/01/27 11:24:30;;;;;;;;;;;9.00;99.90;;;;;;5048482;28;20024;-55
2024/01/27 11:27:03;;;;;;;;;;;9.20;99.90;;;;;;5043995;28;20448;-50
2024/01/27 11:29:29;;;;;;;;;;;9.20;99.90;;;;;;5057333;28;20290;-55
2024/01/27 11:31:56;;;;;;;;;;;9.30;99.90;;;;;;5053638;28;19917;-52
2024/01/27 11:34:21;;;;;;;;;;;9.30;99.90;;;;;;5059137;28;20007;-54
2024/01/27 11:36:47;;;;;;;;;;;9.40;99.90;;;;;;5066851;28;19983;-56
2024/01/27 11:39:22;;;;;;;;;;;9.50;99.90;;;;;;5041197;28;19917;-54
2024/01/27 11:41:48;;;;;;;;;;;9.80;99.90;;;;;;5043925;28;19917;-52
2024/01/27 11:44:15;;;;;;;;;;;9.90;99.90;;;;;;5071432;28;19924;-54
2024/01/27 11:46:40;;;;;;;;;;;10.00;99.90;;;;;;5058053;28;19918;-52
2024/01/27 11:49:06;;;;;;;;;;;10.10;99.90;;;;;;5049583;28;19913;-54
2024/01/27 11:51:31;;;;;;;;;;;10.20;99.90;;;;;;5057072;28;19916;-52
2024/01/27 11:53:57;;;;;;;;;;;10.60;99.90;;;;;;5045803;28;19936;-52
2024/01/27 11:56:22;;;;;;;;;;;11.10;99.90;;;;;;5038426;28;19933;-51
2024/01/27 11:58:48;;;;;;;;;;;11.70;99.90;;;;;;5059876;28;19992;-54
2024/01/27 12:01:14;;;;;;;;;;;12.10;99.90;;;;;;5049029;28;19917;-54
2024/01/27 12:03:40;;;;;;;;;;;12.60;99.90;;;;;;5060675;28;20007;-55
2024/01/27 12:06:07;;;;;;;;;;;13.00;99.90;;;;;;5070363;28;19971;-54
2024/01/27 12:08:34;;;;;;;;;;;13.40;99.90;;;;;;5054764;28;19912;-55
2024/01/27 12:11:00;;;;;;;;;;;14.10;99.90;;;;;;5053115;28;19921;-52
2024/01/27 12:13:25;;;;;;;;;;;14.40;99.90;;;;;;5047998;28;19912;-55
2024/01/27 12:15:50;;;;;;;;;;;14.50;99.90;;;;;;5046295;28;19921;-54
2024/01/27 12:18:18;;;;;;;;;;;14.70;99.90;;;;;;5047477;28;19932;-53
2024/01/27 12:20:44;;;;;;;;;;;15.10;99.90;;;;;;5061378;28;19912;-55
2024/01/27 12:23:10;;;;;;;;;;;15.00;99.90;;;;;;5067343;28;20502;-51
2024/01/27 12:25:35;;;;;;;;;;;14.60;99.90;;;;;;5037538;28;20016;-55
2024/01/27 12:28:04;;;;;;;;;;;14.40;99.90;;;;;;5047654;28;19913;-51
2024/01/27 12:30:31;;;;;;;;;;;14.00;99.90;;;;;;5059003;28;19960;-57
2024/01/27 12:32:57;;;;;;;;;;;13.60;99.90;;;;;;5053598;28;20307;-58
2024/01/27 12:35:23;;;;;;;;;;;13.20;99.90;;;;;;5054192;28;19910;-56
2024/01/27 12:37:49;;;;;;;;;;;13.10;99.90;;;;;;5045773;28;19913;-53
2024/01/27 12:40:18;;;;;;;;;;;12.90;99.90;;;;;;5064899;28;19913;-56
2024/01/27 12:42:46;;;;;;;;;;;12.70;99.90;;;;;;5061053;28;19951;-55
2024/01/27 12:45:12;;;;;;;;;;;12.50;99.90;;;;;;5050326;28;19915;-57
2024/01/27 12:47:38;;;;;;;;;;;12.40;99.90;;;;;;5056100;28;19916;-58
2024/01/27 12:50:04;;;;;;;;;;;12.40;99.90;;;;;;5060419;28;19951;-57
2024/01/27 12:52:29;;;;;;;;;;;12.40;99.90;;;;;;5055461;28;19968;-55
2024/01/27 12:54:55;;;;;;;;;;;12.50;99.90;;;;;;5069786;28;20291;-55
2024/01/27 12:57:20;;;;;;;;;;;12.20;99.90;;;;;;5054057;28;19986;-50
2024/01/27 12:59:46;;;;;;;;;;;12.30;99.90;;;;;;5037553;28;19917;-56
2024/01/27 13:02:11;;;;;;;;;;;12.30;99.90;;;;;;5047799;28;20444;-56
2024/01/27 13:04:37;;;;;;;;;;;12.20;99.90;;;;;;5058550;28;19912;-55
2024/01/27 13:07:02;;;;;;;;;;;12.10;99.90;;;;;;5050627;28;20418;-55
2024/01/27 13:09:28;;;;;;;;;;;12.20;99.90;;;;;;5039460;28;19935;-52
2024/01/27 13:11:53;;;;;;;;;;;12.20;99.90;;;;;;5070499;28;19917;-57
2024/01/27 13:14:20;;;;;;;;;;;12.30;99.90;;;;;;5046171;28;19921;-56
2024/01/27 13:16:46;;;;;;;;;;;12.30;99.90;;;;;;5046267;28;19917;-62
2024/01/27 13:19:11;;;;;;;;;;;11.80;99.90;;;;;;5055818;28;19978;-56
2024/01/27 13:21:37;;;;;;;;;;;12.10;99.90;;;;;;5035611;28;19909;-55
2024/01/27 13:24:02;;;;;;;;;;;12.20;99.90;;;;;;5065156;28;19988;-51
2024/01/27 13:26:28;;;;;;;;;;;12.20;99.90;;;;;;5052759;28;19955;-56
2024/01/27 13:28:53;;;;;;;;;;;12.10;99.90;;;;;;5069837;28;20000;-55
2024/01/27 13:31:19;;;;;;;;;;;12.30;99.90;;;;;;5040271;28;20440;-57
2024/01/27 13:33:44;;;;;;;;;;;12.40;99.90;;;;;;5069689;28;20406;-55
2024/01/27 13:36:10;;;;;;;;;;;12.30;99.90;;;;;;5039854;28;19994;-57
2024/01/27 13:38:35;;;;;;;;;;;12.50;99.90;;;;;;5029826;28;20307;-54
2024/01/27 13:41:01;;;;;;;;;;;12.30;99.90;;;;;;5038954;28;20359;-54
2024/01/27 13:43:26;;;;;;;;;;;12.10;99.90;;;;;;5044907;28;19925;-56
2024/01/27 13:45:54;;;;;;;;;;;11.90;99.90;;;;;;5036766;28;19920;-56
2024/01/27 13:48:20;;;;;;;;;;;11.90;99.90;;;;;;5053361;28;19921;-52
2024/01/27 13:50:46;;;;;;;;;;;11.90;99.90;;;;;;5055236;28;19916;-56
2024/01/27 13:53:11;;;;;;;;;;;12.00;99.90;;;;;;5064833;28;19912;-56
2024/01/27 13:55:37;;;;;;;;;;;11.70;99.90;;;;;;5048945;28;19913;-55
2024/01/27 13:58:03;;;;;;;;;;;11.90;99.90;;;;;;5048189;28;20436;-54
2024/01/27 14:00:29;;;;;;;;;;;11.80;99.90;;;;;;5016202;28;19999;-56
2024/01/27 14:02:54;;;;;;;;;;;11.80;99.90;;;;;;5049194;28;19976;-53
2024/01/27 14:05:20;;;;;;;;;;;11.70;99.90;;;;;;5044274;28;19939;-53
2024/01/27 14:07:45;;;;;;;;;;;11.80;99.90;;;;;;5059624;28;20007;-55
2024/01/27 14:10:11;;;;;;;;;;;11.70;99.90;;;;;;5036016;28;20016;-54
2024/01/27 14:12:36;;;;;;;;;;;11.80;99.90;;;;;;5046961;28;19923;-52
2024/01/27 14:15:03;;;;;;;;;;;11.80;99.90;;;;;;5049804;28;20233;-53
2024/01/27 14:17:28;;;;;;;;;;;11.60;99.90;;;;;;5068709;28;20360;-52